BAW292 ESGG-EDDF
Flight info
| Callsign | BAW292 |
|---|---|
| Flight time | N/A |
| Altitude | 37000 |
| Route | TOPLA L996 ERNOV DCT NIKDA/N0454F380 DCT NOBRI DCT BUMIL DCT HLZ DCT RIMET/N0453F310 T157 KOKEB/N0408F230 T157 KERAX KERAX5A |
| Aircraft | B738/M-SDE2E3FGHIRWXY/LB1 |
Departure
| Time | 2026-05-04 16:12 |
|---|---|
| Airport | Göteborg Landvetter Airport (ESGG) |
Arrival
| Time | N/A |
|---|---|
| Airport | Frankfurt Main Airport (EDDF) |
| Time | Latitude | Longitude | Altitude | Speed | Heading |
|---|---|---|---|---|---|
| 2026-05-04 15:55 | 57.66892 | 12.29404 | 509 ft | 0 kts | 115° |
| 2026-05-04 15:56 | 57.66894 | 12.29394 | 509 ft | 2 kts | 115° |
| 2026-05-04 15:56 | 57.66899 | 12.29373 | 509 ft | 2 kts | 115° |
| 2026-05-04 15:57 | 57.66902 | 12.29362 | 509 ft | 1 kts | 117° |
| 2026-05-04 15:57 | 57.66907 | 12.29344 | 509 ft | 1 kts | 96° |
| 2026-05-04 15:57 | 57.66908 | 12.29337 | 509 ft | 0 kts | 66° |
| 2026-05-04 15:57 | 57.66908 | 12.29336 | 509 ft | 1 kts | 64° |
| 2026-05-04 15:58 | 57.66908 | 12.29334 | 509 ft | 0 kts | 58° |
| 2026-05-04 16:01 | 57.66908 | 12.29335 | 509 ft | 0 kts | 58° |
| 2026-05-04 16:01 | 57.66909 | 12.29338 | 509 ft | 0 kts | 58° |
| 2026-05-04 16:01 | 57.66910 | 12.29340 | 509 ft | 0 kts | 58° |
| 2026-05-04 16:02 | 57.66909 | 12.29337 | 509 ft | 2 kts | 58° |
| 2026-05-04 16:02 | 57.66900 | 12.29311 | 509 ft | 2 kts | 58° |
| 2026-05-04 16:02 | 57.66904 | 12.29299 | 509 ft | 2 kts | 10° |
| 2026-05-04 16:03 | 57.66921 | 12.29307 | 509 ft | 0 kts | 19° |
| 2026-05-04 16:04 | 57.66942 | 12.29321 | 509 ft | 4 kts | 20° |
| 2026-05-04 16:04 | 57.66970 | 12.29315 | 509 ft | 5 kts | 328° |
| 2026-05-04 16:05 | 57.66992 | 12.29257 | 509 ft | 7 kts | 303° |
| 2026-05-04 16:05 | 57.67032 | 12.29204 | 509 ft | 8 kts | 345° |
| 2026-05-04 16:05 | 57.67147 | 12.29279 | 511 ft | 11 kts | 25° |
| 2026-05-04 16:06 | 57.67220 | 12.29342 | 511 ft | 12 kts | 25° |
| 2026-05-04 16:06 | 57.67350 | 12.29465 | 513 ft | 2 kts | 23° |
| 2026-05-04 16:07 | 57.67374 | 12.29478 | 513 ft | 3 kts | 6° |
| 2026-05-04 16:07 | 57.67375 | 12.29478 | 513 ft | 0 kts | 5° |
| 2026-05-04 16:08 | 57.67407 | 12.29451 | 513 ft | 6 kts | 317° |
| 2026-05-04 16:09 | 57.67461 | 12.29222 | 513 ft | 13 kts | 273° |
| 2026-05-04 16:09 | 57.67433 | 12.29025 | 511 ft | 0 kts | 207° |
| 2026-05-04 16:11 | 57.67066 | 12.28684 | 511 ft | 82 kts | 205° |
| 2026-05-04 16:11 | 57.66303 | 12.27991 | 500 ft | 159 kts | 206° |
| 2026-05-04 16:12 | 57.62999 | 12.24958 | 3045 ft | 189 kts | 206° |
| 2026-05-04 16:12 | 57.58499 | 12.23015 | 4097 ft | 244 kts | 185° |
| 2026-05-04 16:13 | 57.54972 | 12.22629 | 5069 ft | 268 kts | 177° |
| 2026-05-04 16:13 | 57.51247 | 12.23565 | 6788 ft | 273 kts | 171° |
| 2026-05-04 16:14 | 57.47446 | 12.24711 | 8449 ft | 280 kts | 171° |
| 2026-05-04 16:14 | 57.43543 | 12.25830 | 10053 ft | 288 kts | 172° |
| 2026-05-04 16:15 | 57.36968 | 12.27637 | 10913 ft | 352 kts | 172° |
| 2026-05-04 16:16 | 57.32006 | 12.28977 | 12187 ft | 365 kts | 172° |
| 2026-05-04 16:16 | 57.24352 | 12.31031 | 14399 ft | 376 kts | 172° |
| 2026-05-04 16:17 | 57.19143 | 12.32423 | 15004 ft | 382 kts | 172° |
| 2026-05-04 16:18 | 57.11267 | 12.34500 | 15006 ft | 381 kts | 172° |
| 2026-05-04 16:18 | 57.08666 | 12.35147 | 15033 ft | 384 kts | 173° |
| 2026-05-04 16:19 | 57.00646 | 12.37114 | 17215 ft | 390 kts | 173° |
| 2026-05-04 16:19 | 56.95200 | 12.38452 | 18485 ft | 399 kts | 173° |
| 2026-05-04 16:20 | 56.86818 | 12.40511 | 20323 ft | 410 kts | 173° |
| 2026-05-04 16:20 | 56.81109 | 12.41909 | 21439 ft | 417 kts | 173° |
| 2026-05-04 16:21 | 56.72370 | 12.44040 | 22987 ft | 427 kts | 173° |
| 2026-05-04 16:22 | 56.66427 | 12.45484 | 23937 ft | 434 kts | 173° |
| 2026-05-04 16:22 | 56.58387 | 12.47430 | 25111 ft | 441 kts | 173° |
| 2026-05-04 16:23 | 56.49170 | 12.49651 | 26311 ft | 450 kts | 173° |
| 2026-05-04 16:24 | 56.36600 | 12.52671 | 27746 ft | 460 kts | 173° |
| 2026-05-04 16:25 | 56.30243 | 12.54203 | 28388 ft | 464 kts | 173° |
| 2026-05-04 16:26 | 56.17315 | 12.57186 | 29673 ft | 470 kts | 177° |
| 2026-05-04 16:26 | 56.07598 | 12.55783 | 30904 ft | 466 kts | 187° |
| 2026-05-04 16:27 | 56.01165 | 12.54438 | 31588 ft | 466 kts | 187° |
| 2026-05-04 16:28 | 55.91578 | 12.52562 | 32695 ft | 462 kts | 186° |
| 2026-05-04 16:28 | 55.81995 | 12.50754 | 33669 ft | 461 kts | 186° |
| 2026-05-04 16:29 | 55.71425 | 12.48769 | 34712 ft | 459 kts | 186° |